Flight Track Log - Related Links

Times and Time Zones

All times are in EDT time to prevent confusion due to time zone crossing. See the N745VJ flight status page for this flight to view local times or setup timezone preferences in your user account.


Time Position Orientation Groundspeed Altitude Reporting Facility
EDT Latitude Longitude Course Direction KTS MPH feet Rate Location/Type
Fri 10:31:29 AM 40.6667 -73.7167 246° West 214 246 2,700  Level New York TRACON
Fri 10:32:24 AM 40.6333 -73.6667 131° Southeast 263 303 4,600 1,722 Climbing New York TRACON
Fri 10:33:00 AM 40.4476 -74.0787 229° Southwest  Level FlightAware Approximate
Fri 10:33:24 AM 40.5667 -73.7167 210° Southwest 250 288 6,000  Level New York TRACON
Fri 10:34:00 AM 40.3795 -74.1807 229° Southwest  Level FlightAware Approximate
Fri 10:34:24 AM 40.5333 -73.7833 237° Southwest 275 316 8,700  Level New York TRACON
Fri 10:35:00 AM 40.3149 -74.2864 232° Southwest  Level FlightAware Approximate
Fri 10:35:24 AM 40.4833 -73.8667 232° Southwest 295 339 11,000  Level New York TRACON
Fri 10:36:00 AM 40.2483 -74.3885 246° West  Level FlightAware Approximate
Fri 10:36:24 AM 40.4333 -73.9667 237° Southwest 321 369 11,000  Level New York TRACON
Fri 10:37:24 AM 40.4000 -74.0667 246° West 326 375 13,600 1,920 Climbing New York TRACON
Fri 10:38:29 AM 40.3522 -74.1725 239° Southwest 333 383 15,000 1,143 Climbing New York Center
Fri 10:39:30 AM 40.3008 -74.2869 240° Southwest 338 389 16,000 885 Climbing New York Center
Fri 10:40:31 AM 40.2561 -74.3853 239° Southwest 338 389 16,800 559 Climbing New York Center
Fri 10:41:28 AM 40.2117 -74.4783 238° Southwest 343 395 17,100 1,322 Climbing New York Center
Fri 10:42:29 AM 40.1928 -74.6131 260° West 338 389 19,400 2,213 Climbing New York Center
Fri 10:43:30 AM 40.1844 -74.7375 265° West 343 395 21,600 2,033 Climbing New York Center
Fri 10:44:30 AM 40.1717 -74.8700 263° West 355 409 23,500 1,881 Climbing New York Center
Fri 10:45:28 AM 40.1628 -75.0025 265° West 367 422 25,300 1,729 Climbing New York Center
Fri 10:46:28 AM 40.1514 -75.1431 264° West 379 436 26,900 1,636 Climbing New York Center
Fri 10:47:29 AM 40.1397 -75.2836 264° West 386 444 28,600 1,426 Climbing New York Center
Fri 10:48:30 AM 40.0992 -75.4194 249° West 391 450 29,800 1,190 Climbing New York Center
Fri 10:49:30 AM 40.0194 -75.5361 228° Southwest 404 465 31,000 1,525 Climbing New York Center
Fri 10:50:28 AM 39.9353 -75.6522 227° Southwest 430 495 32,800 1,613 Climbing New York Center
Fri 10:51:29 AM 39.8597 -75.7686 230° Southwest 436 502 34,200 1,050 Climbing New York Center
Fri 10:52:28 AM 39.7858 -75.8847 230° Southwest 436 502 34,900 1,100 Climbing New York Center
Fri 10:54:29 AM 39.6394 -76.1197 231° Southwest 420 483 37,500 1,022 Climbing Washington Center
Fri 10:55:30 AM 39.5639 -76.2375 230° Southwest 420 483 38,000 246 Climbing Washington Center
Fri 10:56:31 AM 39.4819 -76.3633 230° Southwest 420 483 38,000  Level Washington Center
Fri 10:57:29 AM 39.4083 -76.4781 230° Southwest 425 489 38,000  Level Washington Center
Fri 10:58:30 AM 39.3303 -76.5925 229° Southwest 425 489 38,000  Level Washington Center
Fri 10:59:31 AM 39.2583 -76.7067 231° Southwest 425 489 38,000 50 Level Washington Center
Fri 11:00:31 AM 39.1844 -76.8206 230° Southwest 420 483 38,100 51 Climbing Washington Center
Fri 11:01:29 AM 39.1122 -76.9319 230° Southwest 420 483 38,100 -51 Level Washington Center
Fri 11:02:29 AM 39.0358 -77.0453 229° Southwest 420 483 38,000 -50 Descending Washington Center
Fri 11:03:30 AM 38.9492 -77.1450 222° Southwest 420 483 38,000 49 Level Washington Center
Fri 11:04:31 AM 38.8583 -77.2417 220° Southwest 420 483 38,100 50 Climbing Washington Center
Fri 11:05:29 AM 38.7694 -77.3383 220° Southwest 425 489 38,100 -50 Level Washington Center
Fri 11:06:30 AM 38.6825 -77.4347 221° Southwest 425 489 38,000 -49 Descending Washington Center
Fri 11:07:31 AM 38.6039 -77.5203 220° Southwest 425 489 38,000  Level Washington Center
Fri 11:08:31 AM 38.5147 -77.6189 221° Southwest 425 489 38,000  Level Washington Center
Fri 11:09:29 AM 38.4236 -77.7144 219° Southwest 420 483 38,000  Level Washington Center
Fri 11:10:30 AM 38.3342 -77.8097 220° Southwest 420 483 38,000 49 Level Washington Center
Fri 11:11:31 AM 38.2447 -77.9078 221° Southwest 425 489 38,100 51 Climbing Washington Center
Fri 11:12:28 AM 38.1553 -78.0081 221° Southwest 425 489 38,100  Level Washington Center
Fri 11:13:30 AM 38.0592 -78.1078 219° Southwest 431 496 38,100 -49 Level Washington Center
Fri 11:14:30 AM 37.9800 -78.2106 226° Southwest 426 490 38,000 -50 Descending Washington Center
Fri 11:15:31 AM 37.9003 -78.3208 228° Southwest 421 484 38,000  Level Washington Center
Fri 11:16:31 AM 37.8139 -78.4464 229° Southwest 435 501 38,000 51 Level Washington Center
Fri 11:17:29 AM 37.7361 -78.5564 228° Southwest 430 495 38,100  Climbing Washington Center
Fri 11:18:30 AM 37.6606 -78.6664 229° Southwest 424 488 38,000 -50 Descending Washington Center
Fri 11:19:30 AM 37.5803 -78.7783 228° Southwest 424 488 38,000  Level Washington Center
Fri 11:20:31 AM 37.5044 -78.8850 228° Southwest 424 488 38,000  Level Washington Center
Fri 11:21:29 AM 37.4350 -78.9842 229° Southwest 424 488 38,000  Level Washington Center
Fri 11:22:30 AM 37.3567 -79.0906 227° Southwest 424 488 38,000  Level Washington Center
Fri 11:23:30 AM 37.2783 -79.1992 228° Southwest 424 488 38,000  Level Washington Center
Fri 11:24:31 AM 37.1881 -79.2939 220° Southwest 424 488 38,000 -298 Level Washington Center
Fri 11:25:31 AM 37.0853 -79.3750 212° Southwest 430 495 37,400 -814 Descending Washington Center
Fri 11:26:29 AM 36.9844 -79.4583 213° Southwest 440 506 36,400 -1,261 Descending Washington Center
Fri 11:27:30 AM 36.8708 -79.5514 213° Southwest 447 514 34,900 -2,067 Descending Washington Center
Fri 11:29:29 AM 36.6622 -79.7194 213° Southwest 447 514 30,200 -2,380 Descending Atlanta Center
Fri 11:30:29 AM 36.5608 -79.8025 213° Southwest 447 514 27,800 -2,400 Descending Atlanta Center
Fri 11:31:29 AM 36.4736 -79.8744 214° Southwest 436 502 25,400 -2,400 Descending Atlanta Center
Fri 11:32:29 AM 36.3781 -79.9514 213° Southwest 424 488 23,000 -1,700 Descending Atlanta Center
Fri 11:33:29 AM 36.2908 -80.0231 214° Southwest 407 468 22,000 -550 Descending Atlanta Center
Fri 11:34:29 AM 36.2017 -80.0994 215° Southwest 401 461 21,900 -1,350 Descending Atlanta Center
Fri 11:35:29 AM 36.1042 -80.1814 214° Southwest 396 456 19,300 -2,300 Descending Atlanta Center
Fri 11:36:29 AM 36.0186 -80.2547 215° Southwest 391 450 17,300 -2,250 Descending Atlanta Center
Fri 11:37:13 AM 35.9558 -80.3114 216° Southwest 370 426 15,400 -1,900 Descending Atlanta Center
Fri 11:37:29 AM 35.9536 -80.3117 186° South 386 444 15,400 -1,895 Level Atlanta Center
Fri 11:38:29 AM 35.8603 -80.3928 215° Southwest 380 437 13,000 -1,756 Descending Atlanta Center
Fri 11:38:51 AM 35.8278 -80.4250 219° Southwest 339 390 13,000 -300 Level Atlanta Center
Fri 11:39:29 AM 35.7808 -80.4603 211° Southwest 346 398 12,700 -984 Descending Atlanta Center
Fri 11:39:52 AM 35.7586 -80.4817 218° Southwest 280 322 12,000 -1,500 Descending Atlanta Center
Fri 11:40:29 AM 35.7136 -80.5169 212° Southwest 303 349 11,200 -896 Descending Atlanta Center
Fri 11:40:59 AM 35.6811 -80.5439 214° Southwest 285 328 11,000 -200 Descending Atlanta Center
Fri 11:41:29 AM 35.6483 -80.5708 214° Southwest 297 342 11,000 -194 Level Atlanta Center
Fri 11:42:01 AM 35.6158 -80.6003 216° Southwest 289 333 10,800 -900 Descending Atlanta Center
Fri 11:42:29 AM 35.5853 -80.6244 213° Southwest 297 342 10,100 -1,600 Descending Atlanta Center
Fri 11:43:01 AM 35.5486 -80.6542 213° Southwest 283 326 9,200 -1,100 Descending Atlanta Center
Fri 11:43:29 AM 35.5178 -80.6783 213° Southwest 297 342 9,000 -194 Descending Atlanta Center
Fri 11:44:03 AM 35.4853 -80.7078 216° Southwest 280 322 9,000  Level Atlanta Center
Fri 11:44:29 AM 35.4547 -80.7319 213° Southwest 292 336 9,000  Level Atlanta Center
Fri 11:45:04 AM 35.4181 -80.7642 216° Southwest 280 322 9,000  Level Atlanta Center
Fri 11:45:29 AM 35.3914 -80.7856 213° Southwest 287 330 9,000 109 Level Atlanta Center
Fri 11:45:59 AM 35.3547 -80.8150 213° Southwest 281 323 9,100  Climbing Atlanta Center
Fri 11:46:29 AM 35.3322 -80.8336 214° Southwest 287 330 9,000 -90 Descending Atlanta Center
Fri 11:47:06 AM 35.2758 -80.8383 184° South 290 334 9,000 -184 Level Atlanta Center
Fri 11:48:07 AM 35.1964 -80.8311 176° South 290 334 8,700 -878 Descending Atlanta Center
Fri 11:49:09 AM 35.1189 -80.8139 170° South 284 327 7,200 -1,328 Descending Atlanta Center
Fri 11:50:09 AM 35.0369 -80.7969 170° South 266 306 6,000 -934 Descending Atlanta Center
Fri 11:51:11 AM 35.0117 -80.8689 247° West 227 261 5,300 -683 Descending Atlanta Center
Fri 11:52:12 AM 35.0361 -80.9236 299° West 188 216 4,600 -689 Descending Atlanta Center

Login

Don't have an account? Register now (free) for customized features, flight alerts, and more!